createdAt,value
2023-02-13T00:01:04.838Z,100.00
2023-02-13T00:03:31.473Z,100.00
2023-02-13T00:06:00.886Z,100.00
2023-02-13T00:08:28.225Z,100.00
2023-02-13T00:10:55.160Z,100.00
2023-02-13T00:13:21.910Z,100.00
2023-02-13T00:15:58.930Z,100.00
2023-02-13T00:18:27.100Z,100.00
2023-02-13T00:20:59.019Z,100.00
2023-02-13T00:23:25.767Z,100.00
2023-02-13T00:25:52.397Z,100.00
2023-02-13T00:28:19.068Z,100.00
2023-02-13T00:30:45.735Z,100.00
2023-02-13T00:33:12.364Z,100.00
2023-02-13T00:35:38.998Z,100.00
2023-02-13T00:38:09.342Z,100.00
2023-02-13T00:40:36.010Z,100.00
2023-02-13T00:43:03.168Z,100.00
2023-02-13T00:45:32.632Z,100.00
2023-02-13T00:47:59.264Z,100.00
2023-02-13T00:50:27.250Z,99.89
2023-02-13T00:52:53.964Z,99.68
2023-02-13T00:55:21.358Z,99.19
2023-02-13T00:57:48.073Z,99.07
2023-02-13T01:00:17.880Z,98.90
2023-02-13T01:02:44.511Z,98.42
2023-02-13T01:05:11.245Z,98.29
2023-02-13T01:07:38.028Z,98.31
2023-02-13T01:10:04.869Z,98.64
2023-02-13T01:12:34.224Z,97.97
2023-02-13T01:15:04.416Z,96.67
2023-02-13T01:17:31.550Z,95.22
2023-02-13T01:19:58.168Z,95.80
2023-02-13T01:22:25.381Z,95.14
2023-02-13T01:24:51.993Z,95.46
2023-02-13T01:27:18.691Z,96.15
2023-02-13T01:29:51.242Z,95.92
2023-02-13T01:32:17.882Z,95.89
2023-02-13T01:34:44.590Z,94.74
2023-02-13T01:37:14.433Z,94.19
2023-02-13T01:39:41.131Z,94.13
2023-02-13T01:42:22.770Z,93.70
2023-02-13T01:45:23.621Z,93.45
2023-02-13T01:48:24.919Z,94.14
2023-02-13T01:51:12.059Z,94.08
2023-02-13T01:53:49.935Z,94.65
2023-02-13T01:56:27.809Z,94.18
2023-02-13T01:58:59.493Z,94.30
2023-02-13T02:01:31.223Z,94.78
2023-02-13T02:04:06.605Z,94.48
2023-02-13T02:06:40.169Z,95.09
2023-02-13T02:09:12.718Z,95.34
2023-02-13T02:11:51.455Z,95.62
2023-02-13T02:14:22.628Z,95.58
2023-02-13T02:16:49.377Z,95.89
2023-02-13T02:19:40.654Z,96.17
2023-02-13T02:22:24.404Z,96.41
2023-02-13T02:24:50.962Z,96.83
2023-02-13T02:27:45.816Z,96.88
2023-02-13T02:30:26.417Z,97.33
2023-02-13T02:33:14.000Z,97.32
2023-02-13T02:36:08.557Z,97.64
2023-02-13T02:38:55.613Z,97.49
2023-02-13T02:41:51.280Z,97.74
2023-02-13T02:44:20.868Z,97.99
2023-02-13T02:47:24.778Z,97.96
2023-02-13T02:50:03.388Z,97.45
2023-02-13T02:52:37.626Z,97.21
2023-02-13T02:55:07.362Z,97.14
2023-02-13T02:57:58.671Z,96.88
2023-02-13T03:00:45.269Z,96.93
2023-02-13T03:03:41.074Z,97.04
2023-02-13T03:06:22.724Z,97.44
2023-02-13T03:09:18.901Z,97.44
2023-02-13T03:12:11.734Z,96.69
2023-02-13T03:14:38.534Z,96.60
2023-02-13T03:17:24.697Z,96.75
2023-02-13T03:20:19.733Z,96.96
2023-02-13T03:23:20.500Z,97.05
2023-02-13T03:26:14.593Z,97.12
2023-02-13T03:29:17.323Z,97.04
2023-02-13T03:31:54.051Z,97.01
2023-02-13T03:34:25.684Z,97.10
2023-02-13T03:37:30.587Z,97.29
2023-02-13T03:40:01.583Z,97.63
2023-02-13T03:42:43.114Z,97.38
2023-02-13T03:45:48.658Z,97.49
2023-02-13T03:48:38.038Z,97.66
2023-02-13T03:51:06.592Z,97.57
2023-02-13T03:53:38.445Z,97.30
2023-02-13T03:56:30.378Z,97.67
2023-02-13T03:59:18.030Z,97.97
2023-02-13T04:02:10.313Z,98.02
2023-02-13T04:05:11.410Z,98.12
2023-02-13T04:07:38.921Z,98.01
2023-02-13T04:10:16.312Z,98.23
2023-02-13T04:12:49.102Z,98.01
2023-02-13T04:15:24.866Z,98.24
2023-02-13T04:18:03.648Z,98.27
2023-02-13T04:20:32.345Z,98.25
2023-02-13T04:23:10.232Z,98.37
2023-02-13T04:25:39.463Z,98.31
2023-02-13T04:28:06.397Z,98.71
2023-02-13T04:30:33.672Z,98.71
2023-02-13T04:33:04.472Z,98.78
2023-02-13T04:35:34.034Z,98.64
2023-02-13T04:38:00.857Z,98.52
2023-02-13T04:40:33.572Z,98.51
2023-02-13T04:43:06.830Z,98.69
2023-02-13T04:45:33.519Z,98.67
2023-02-13T04:48:03.372Z,98.76
2023-02-13T04:50:30.186Z,98.61
2023-02-13T04:52:58.398Z,98.60
2023-02-13T04:55:26.727Z,98.74
2023-02-13T04:57:54.803Z,98.57
2023-02-13T05:00:22.910Z,98.71
2023-02-13T05:02:49.601Z,98.91
2023-02-13T05:05:16.479Z,98.74
2023-02-13T05:07:43.302Z,98.96
2023-02-13T05:10:11.373Z,98.98
2023-02-13T05:12:38.407Z,99.17
2023-02-13T05:15:06.495Z,99.18
2023-02-13T05:17:33.145Z,99.22
2023-02-13T05:20:00.069Z,99.21
2023-02-13T05:22:45.470Z,99.14
2023-02-13T05:25:12.121Z,99.48
2023-02-13T05:27:38.754Z,99.40
2023-02-13T05:30:06.221Z,99.26
2023-02-13T05:32:32.883Z,99.32
2023-02-13T05:34:59.496Z,99.49
2023-02-13T05:37:26.175Z,99.49
2023-02-13T05:39:53.077Z,99.01
2023-02-13T05:42:19.700Z,99.00
2023-02-13T05:44:46.412Z,99.16
2023-02-13T05:47:13.073Z,99.39
2023-02-13T05:49:40.045Z,99.45
2023-02-13T05:52:06.669Z,99.41
2023-02-13T05:54:33.347Z,99.50
2023-02-13T05:56:59.949Z,99.25
2023-02-13T05:59:26.563Z,98.91
2023-02-13T06:01:59.349Z,98.87
2023-02-13T06:04:26.136Z,98.98
2023-02-13T06:06:53.743Z,99.07
2023-02-13T06:09:20.290Z,99.11
2023-02-13T06:11:49.597Z,98.92
2023-02-13T06:14:19.504Z,99.21
2023-02-13T06:16:46.771Z,98.97
2023-02-13T06:19:14.891Z,99.04
2023-02-13T06:21:42.465Z,98.85
2023-02-13T06:24:13.269Z,98.63
2023-02-13T06:26:42.828Z,98.65
2023-02-13T06:29:12.955Z,98.60
2023-02-13T06:31:39.973Z,98.59
2023-02-13T06:34:07.199Z,98.81
2023-02-13T06:36:42.937Z,98.73
2023-02-13T06:39:14.083Z,98.97
2023-02-13T06:41:40.685Z,98.91
2023-02-13T06:44:08.030Z,98.96
2023-02-13T06:46:34.894Z,99.06
2023-02-13T06:49:01.508Z,98.79
2023-02-13T06:51:28.127Z,98.71
2023-02-13T06:53:54.732Z,98.73
2023-02-13T06:56:21.574Z,98.43
2023-02-13T06:58:54.437Z,98.39
2023-02-13T07:01:21.137Z,98.30
2023-02-13T07:03:48.849Z,98.02
2023-02-13T07:06:19.928Z,98.16
2023-02-13T07:08:47.360Z,97.62
2023-02-13T07:11:20.639Z,96.51
2023-02-13T07:13:47.370Z,96.52
2023-02-13T07:16:14.185Z,96.34
2023-02-13T07:18:41.400Z,96.53
2023-02-13T07:21:08.448Z,96.50
2023-02-13T07:23:35.565Z,96.34
2023-02-13T07:26:02.854Z,96.64
2023-02-13T07:28:32.599Z,96.64
2023-02-13T07:31:04.733Z,96.60
2023-02-13T07:33:32.609Z,97.03
2023-02-13T07:36:00.410Z,97.08
2023-02-13T07:38:27.029Z,96.82
2023-02-13T07:40:53.665Z,96.95
2023-02-13T07:43:20.280Z,97.17
2023-02-13T07:45:47.154Z,97.09
2023-02-13T07:48:13.738Z,97.36
2023-02-13T07:50:40.403Z,97.56
2023-02-13T07:53:07.138Z,97.44
2023-02-13T07:55:33.879Z,97.78
2023-02-13T07:58:00.971Z,97.50
2023-02-13T08:00:27.739Z,97.54
2023-02-13T08:02:54.443Z,97.50
2023-02-13T08:05:21.112Z,97.51
2023-02-13T08:07:47.738Z,97.57
2023-02-13T08:10:35.879Z,97.54
2023-02-13T08:13:02.769Z,97.29
2023-02-13T08:15:29.485Z,96.79
2023-02-13T08:17:58.882Z,96.82
2023-02-13T08:20:25.489Z,96.85
2023-02-13T08:22:52.353Z,96.56
2023-02-13T08:25:19.824Z,95.69
2023-02-13T08:27:47.126Z,96.02
2023-02-13T08:30:15.458Z,95.64
2023-02-13T08:32:53.861Z,95.12
2023-02-13T08:35:22.962Z,95.43
2023-02-13T08:37:49.674Z,95.79
2023-02-13T08:40:16.369Z,95.61
2023-02-13T08:42:43.698Z,95.75
2023-02-13T08:45:11.981Z,95.07
2023-02-13T08:47:40.036Z,94.66
2023-02-13T08:50:07.903Z,95.12
2023-02-13T08:52:34.691Z,95.32
2023-02-13T08:55:03.505Z,95.24
2023-02-13T08:57:33.151Z,94.85
2023-02-13T08:59:59.813Z,95.18
2023-02-13T09:02:26.528Z,94.92
2023-02-13T09:04:53.225Z,94.75
2023-02-13T09:07:19.835Z,94.56
2023-02-13T09:09:46.536Z,94.35
2023-02-13T09:12:13.625Z,94.89
2023-02-13T09:14:40.849Z,94.45
2023-02-13T09:17:07.688Z,94.52
2023-02-13T09:19:34.520Z,94.60
2023-02-13T09:22:01.649Z,94.31
2023-02-13T09:24:28.232Z,93.56
2023-02-13T09:26:58.628Z,94.16
2023-02-13T09:29:25.304Z,93.21
2023-02-13T09:31:52.844Z,93.50
2023-02-13T09:34:19.525Z,92.71
2023-02-13T09:36:46.177Z,93.49
2023-02-13T09:39:12.801Z,93.11
2023-02-13T09:41:44.661Z,93.07
2023-02-13T09:44:36.431Z,93.54
2023-02-13T09:47:19.586Z,93.63
2023-02-13T09:49:53.797Z,92.12
2023-02-13T09:52:20.585Z,92.15
2023-02-13T09:54:47.341Z,92.80
2023-02-13T09:57:29.523Z,91.88
2023-02-13T10:00:17.687Z,92.60
2023-02-13T10:03:02.257Z,92.63
2023-02-13T10:05:48.045Z,92.65
2023-02-13T10:08:36.309Z,92.35
2023-02-13T10:11:24.849Z,92.39
2023-02-13T10:14:06.714Z,91.96
2023-02-13T10:16:42.640Z,92.32
2023-02-13T10:19:31.612Z,93.13
2023-02-13T10:22:09.881Z,93.73
2023-02-13T10:24:57.706Z,94.33
2023-02-13T10:27:25.875Z,94.88
2023-02-13T10:30:05.189Z,94.92
2023-02-13T10:32:42.064Z,94.75
2023-02-13T10:35:35.022Z,94.50
2023-02-13T10:38:16.036Z,94.56
2023-02-13T10:41:07.613Z,94.14
2023-02-13T10:43:45.664Z,94.33
2023-02-13T10:46:30.154Z,94.18
2023-02-13T10:49:26.745Z,94.30
2023-02-13T10:52:11.514Z,94.16
2023-02-13T10:55:05.919Z,94.67
2023-02-13T10:57:57.613Z,93.57
2023-02-13T11:00:34.416Z,92.32
2023-02-13T11:03:01.813Z,92.45
2023-02-13T11:05:41.941Z,92.38
2023-02-13T11:08:39.250Z,92.76
2023-02-13T11:11:39.198Z,92.11
2023-02-13T11:14:23.207Z,92.11
2023-02-13T11:17:03.206Z,91.42
2023-02-13T11:19:51.785Z,91.70
2023-02-13T11:22:35.314Z,91.98
2023-02-13T11:25:38.405Z,92.53
2023-02-13T11:28:10.946Z,92.43
2023-02-13T11:30:39.347Z,92.34
2023-02-13T11:33:24.489Z,90.94
2023-02-13T11:36:06.118Z,90.92
2023-02-13T11:38:32.993Z,90.78
2023-02-13T11:41:10.050Z,90.55
2023-02-13T11:43:54.984Z,90.95
2023-02-13T11:46:25.293Z,90.00
2023-02-13T11:49:04.899Z,89.29
2023-02-13T11:51:49.467Z,89.88
2023-02-13T11:54:44.422Z,89.42
2023-02-13T11:57:29.914Z,89.67
2023-02-13T11:59:57.465Z,87.41
2023-02-13T12:02:50.158Z,88.16
2023-02-13T12:05:25.155Z,87.08
2023-02-13T12:07:54.057Z,87.51
2023-02-13T12:10:32.659Z,86.62
2023-02-13T12:13:03.347Z,86.48
2023-02-13T12:15:33.726Z,85.13
2023-02-13T12:18:11.401Z,86.30
2023-02-13T12:20:45.911Z,85.83
2023-02-13T12:23:22.172Z,85.90
2023-02-13T12:25:53.586Z,85.99
2023-02-13T12:28:29.367Z,85.62
2023-02-13T12:31:11.353Z,86.24
2023-02-13T12:33:40.875Z,85.43
2023-02-13T12:36:19.708Z,85.55
2023-02-13T12:39:23.366Z,83.53
2023-02-13T12:42:02.817Z,83.43
2023-02-13T12:44:50.193Z,83.17
2023-02-13T12:47:22.199Z,84.28
2023-02-13T12:50:13.692Z,83.83
2023-02-13T12:53:05.042Z,82.60
2023-02-13T12:55:37.617Z,83.08
2023-02-13T12:58:32.402Z,82.83
2023-02-13T13:01:17.740Z,82.57
2023-02-13T13:04:03.042Z,82.35
2023-02-13T13:06:38.441Z,81.36
2023-02-13T13:09:19.970Z,82.07
2023-02-13T13:11:52.815Z,81.63
2023-02-13T13:14:37.148Z,81.00
2023-02-13T13:17:19.393Z,80.31
2023-02-13T13:20:14.704Z,80.76
2023-02-13T13:22:54.129Z,82.21
2023-02-13T13:25:36.815Z,83.28
2023-02-13T13:28:17.855Z,82.01
2023-02-13T13:30:45.642Z,81.72
2023-02-13T13:33:24.500Z,80.55
2023-02-13T13:36:29.641Z,80.98
2023-02-13T13:38:56.248Z,81.24
2023-02-13T13:41:36.044Z,80.31
2023-02-13T13:44:26.713Z,81.47
2023-02-13T13:47:02.487Z,81.05
2023-02-13T13:49:43.792Z,80.77
2023-02-13T13:52:27.474Z,79.98
2023-02-13T13:54:55.908Z,78.78
2023-02-13T13:57:43.073Z,79.38
2023-02-13T14:00:14.388Z,80.23
2023-02-13T14:02:50.339Z,79.76
2023-02-13T14:05:25.145Z,78.99
2023-02-13T14:08:00.771Z,78.79
2023-02-13T14:10:30.207Z,79.32
2023-02-13T14:12:56.745Z,79.71
2023-02-13T14:15:38.779Z,79.62
2023-02-13T14:18:14.114Z,80.31
2023-02-13T14:20:44.462Z,79.64
2023-02-13T14:23:43.741Z,79.75
2023-02-13T14:26:35.768Z,80.20
2023-02-13T14:29:23.496Z,79.20
2023-02-13T14:32:07.361Z,80.35
2023-02-13T14:34:39.769Z,80.33
2023-02-13T14:37:17.247Z,80.31
2023-02-13T14:39:46.111Z,80.11
2023-02-13T14:42:26.657Z,80.75
2023-02-13T14:45:02.932Z,80.61
2023-02-13T14:47:40.087Z,81.04
2023-02-13T14:50:08.388Z,80.86
2023-02-13T14:52:45.587Z,80.53
2023-02-13T14:55:17.544Z,79.71
2023-02-13T14:57:53.617Z,81.11
2023-02-13T15:00:39.758Z,80.91
2023-02-13T15:03:20.510Z,81.19
2023-02-13T15:05:53.040Z,81.28
2023-02-13T15:08:23.872Z,80.80
2023-02-13T15:10:59.792Z,81.16
2023-02-13T15:13:37.562Z,81.39
2023-02-13T15:16:09.329Z,81.09
2023-02-13T15:18:52.543Z,81.31
2023-02-13T15:21:24.447Z,82.11
2023-02-13T15:23:55.563Z,82.84
2023-02-13T15:26:26.389Z,82.15
2023-02-13T15:29:07.427Z,82.34
2023-02-13T15:31:38.545Z,82.14
2023-02-13T15:34:20.657Z,83.14
2023-02-13T15:36:51.535Z,83.04
2023-02-13T15:39:20.604Z,82.64
2023-02-13T15:41:50.860Z,83.52
2023-02-13T15:44:22.519Z,83.07
2023-02-13T15:46:56.717Z,83.81
2023-02-13T15:49:26.802Z,83.68
2023-02-13T15:52:28.698Z,83.87
2023-02-13T15:54:56.763Z,84.29
2023-02-13T15:57:30.842Z,84.86
2023-02-13T15:59:58.829Z,83.85
2023-02-13T16:02:36.965Z,84.26
2023-02-13T16:05:06.890Z,83.58
2023-02-13T16:07:55.481Z,82.68
2023-02-13T16:10:37.024Z,81.11
2023-02-13T16:13:16.158Z,81.68
2023-02-13T16:15:43.525Z,82.75
2023-02-13T16:18:21.265Z,81.47
2023-02-13T16:20:56.953Z,82.30
2023-02-13T16:23:23.783Z,82.65
2023-02-13T16:25:51.076Z,83.67
2023-02-13T16:28:27.427Z,83.63
2023-02-13T16:31:05.118Z,84.21
2023-02-13T16:33:37.905Z,84.28
2023-02-13T16:36:10.568Z,83.34
2023-02-13T16:38:45.293Z,84.51
2023-02-13T16:41:17.865Z,84.16
2023-02-13T16:43:54.497Z,84.18
2023-02-13T16:46:41.262Z,84.17
2023-02-13T16:49:10.892Z,84.32
2023-02-13T16:51:44.748Z,84.71
2023-02-13T16:54:11.338Z,84.19
2023-02-13T16:56:50.287Z,85.01
2023-02-13T16:59:39.611Z,84.10
2023-02-13T17:02:32.487Z,83.97
2023-02-13T17:05:20.470Z,83.89
2023-02-13T17:07:53.130Z,84.70
2023-02-13T17:10:29.136Z,84.28
2023-02-13T17:13:01.642Z,84.34
2023-02-13T17:15:31.587Z,84.49
2023-02-13T17:17:58.992Z,85.09
2023-02-13T17:20:29.513Z,85.03
2023-02-13T17:22:58.168Z,84.87
2023-02-13T17:25:39.057Z,84.81
2023-02-13T17:28:20.947Z,85.26
2023-02-13T17:30:50.939Z,85.87
2023-02-13T17:33:29.699Z,86.10
2023-02-13T17:35:57.682Z,86.46
2023-02-13T17:38:24.516Z,86.31
2023-02-13T17:40:53.256Z,85.97
2023-02-13T17:43:20.992Z,85.92
2023-02-13T17:45:49.853Z,85.73
2023-02-13T17:48:24.109Z,85.26
2023-02-13T17:50:51.587Z,85.41
2023-02-13T17:53:33.338Z,85.07
2023-02-13T17:56:00.010Z,84.79
2023-02-13T17:58:26.676Z,85.50
2023-02-13T18:00:53.518Z,86.34
2023-02-13T18:03:20.638Z,86.00
2023-02-13T18:05:48.803Z,85.79
2023-02-13T18:08:15.968Z,86.01
2023-02-13T18:10:42.727Z,85.10
2023-02-13T18:13:09.330Z,84.91
2023-02-13T18:15:41.195Z,84.26
2023-02-13T18:18:08.171Z,84.19
2023-02-13T18:20:35.212Z,84.07
2023-02-13T18:23:06.256Z,85.08
2023-02-13T18:25:33.001Z,84.54
2023-02-13T18:28:09.175Z,85.14
2023-02-13T18:30:36.078Z,85.54
2023-02-13T18:33:07.589Z,85.64
2023-02-13T18:35:36.599Z,85.54
2023-02-13T18:38:05.596Z,85.96
2023-02-13T18:40:32.228Z,85.81
2023-02-13T18:43:02.077Z,85.43
2023-02-13T18:45:28.824Z,84.46
2023-02-13T18:47:55.434Z,83.37
2023-02-13T18:50:22.193Z,82.55
2023-02-13T18:52:49.400Z,82.75
2023-02-13T18:55:16.685Z,81.56
2023-02-13T18:57:45.430Z,81.61
2023-02-13T19:00:14.367Z,81.73
2023-02-13T19:02:41.148Z,81.31
2023-02-13T19:05:08.858Z,81.93
2023-02-13T19:07:36.816Z,81.99
2023-02-13T19:10:03.737Z,82.65
2023-02-13T19:12:30.399Z,81.64
2023-02-13T19:14:57.046Z,81.21
2023-02-13T19:17:23.860Z,81.03
2023-02-13T19:19:51.756Z,80.71
2023-02-13T19:22:21.562Z,81.40
2023-02-13T19:24:50.493Z,81.37
2023-02-13T19:27:17.795Z,81.78
2023-02-13T19:29:44.650Z,81.01
2023-02-13T19:32:11.292Z,80.03
2023-02-13T19:34:38.011Z,79.61
2023-02-13T19:37:05.035Z,78.71
2023-02-13T19:39:32.180Z,78.98
2023-02-13T19:41:59.043Z,78.52
2023-02-13T19:44:25.784Z,79.53
2023-02-13T19:46:52.447Z,79.47
2023-02-13T19:49:22.539Z,79.34
2023-02-13T19:51:49.162Z,78.82
2023-02-13T19:54:18.388Z,79.09
2023-02-13T19:56:45.091Z,78.83
2023-02-13T19:59:13.595Z,78.68
2023-02-13T20:01:43.714Z,78.34
2023-02-13T20:04:14.531Z,78.77
2023-02-13T20:06:41.402Z,78.20
2023-02-13T20:09:15.004Z,78.58
2023-02-13T20:11:43.091Z,78.65
2023-02-13T20:14:17.790Z,78.24
2023-02-13T20:16:45.727Z,78.18
2023-02-13T20:19:13.752Z,78.26
2023-02-13T20:21:41.621Z,78.02
2023-02-13T20:24:09.398Z,78.30
2023-02-13T20:26:38.994Z,78.33
2023-02-13T20:29:08.953Z,78.06
2023-02-13T20:31:36.424Z,78.27
2023-02-13T20:34:06.165Z,78.38
2023-02-13T20:36:32.968Z,78.41
2023-02-13T20:39:02.365Z,77.47
2023-02-13T20:41:31.680Z,77.83
2023-02-13T20:44:03.688Z,78.53
2023-02-13T20:46:31.943Z,77.86
2023-02-13T20:48:58.633Z,77.46
2023-02-13T20:51:25.472Z,78.24
2023-02-13T20:53:52.263Z,78.45
2023-02-13T20:56:23.658Z,78.23
2023-02-13T20:58:51.863Z,77.63
2023-02-13T21:01:20.526Z,77.33
2023-02-13T21:03:53.554Z,77.71
2023-02-13T21:06:22.421Z,78.17
2023-02-13T21:08:49.568Z,77.93
2023-02-13T21:11:17.225Z,78.10
2023-02-13T21:13:43.683Z,78.94
2023-02-13T21:16:13.921Z,78.30
2023-02-13T21:18:41.585Z,78.06
2023-02-13T21:21:12.914Z,78.06
2023-02-13T21:23:39.801Z,78.63
2023-02-13T21:26:15.150Z,78.78
2023-02-13T21:28:43.409Z,78.23
2023-02-13T21:31:15.317Z,78.58
2023-02-13T21:33:42.054Z,79.61
2023-02-13T21:36:10.965Z,78.93
2023-02-13T21:38:38.863Z,77.97
2023-02-13T21:41:17.527Z,78.55
2023-02-13T21:43:47.730Z,79.26
2023-02-13T21:46:20.841Z,78.96
2023-02-13T21:48:48.358Z,79.13
2023-02-13T21:51:18.321Z,78.54
2023-02-13T21:53:46.624Z,77.86
2023-02-13T21:56:16.246Z,78.13
2023-02-13T21:58:44.097Z,78.45
2023-02-13T22:01:23.845Z,78.53
2023-02-13T22:03:53.940Z,78.67
2023-02-13T22:06:21.803Z,78.43
2023-02-13T22:09:02.973Z,78.37
2023-02-13T22:11:30.279Z,78.39
2023-02-13T22:14:02.691Z,78.15
2023-02-13T22:16:33.625Z,78.17
2023-02-13T22:19:01.417Z,78.24
2023-02-13T22:21:29.676Z,77.72
2023-02-13T22:23:57.245Z,77.78
2023-02-13T22:26:29.919Z,78.10
2023-02-13T22:29:05.820Z,78.35
2023-02-13T22:31:35.780Z,78.57
2023-02-13T22:34:04.963Z,77.93
2023-02-13T22:36:39.100Z,77.54
2023-02-13T22:39:09.802Z,77.82
2023-02-13T22:41:40.013Z,78.18
2023-02-13T22:44:06.669Z,77.85
2023-02-13T22:46:34.157Z,78.35
2023-02-13T22:49:01.410Z,79.01
2023-02-13T22:51:37.223Z,78.40
2023-02-13T22:54:04.881Z,78.25
2023-02-13T22:56:32.170Z,78.00
2023-02-13T22:59:01.091Z,78.53
2023-02-13T23:01:34.766Z,78.55
2023-02-13T23:04:01.833Z,78.92
2023-02-13T23:06:28.991Z,79.14
2023-02-13T23:09:01.721Z,78.52
2023-02-13T23:11:47.162Z,77.61
2023-02-13T23:14:25.616Z,78.11
2023-02-13T23:17:12.522Z,77.28
2023-02-13T23:19:46.102Z,77.57
2023-02-13T23:22:13.616Z,77.31
2023-02-13T23:24:43.536Z,77.84
2023-02-13T23:27:13.508Z,78.40
2023-02-13T23:29:42.789Z,78.25
2023-02-13T23:32:09.581Z,78.52
2023-02-13T23:34:37.191Z,78.41
2023-02-13T23:37:03.872Z,77.64
2023-02-13T23:39:37.303Z,77.82
2023-02-13T23:42:06.599Z,76.58
2023-02-13T23:44:35.052Z,76.76
2023-02-13T23:47:04.794Z,76.27
2023-02-13T23:49:37.200Z,75.93
2023-02-13T23:52:06.472Z,77.01
2023-02-13T23:54:34.096Z,77.96
2023-02-13T23:57:01.871Z,77.83
2023-02-13T23:59:28.571Z,78.29
